Aérodrome :
LOGIN :

S'inscrire | Disclaimer

   EN    FR    IT 

 










Légende :    VFR   VFR Marginal   IFR   IFR Intensif   IFR Très Intensif
Visi : 
Plafond : 
>= 8 km
>= 3000ft
5 à 8 km
1000 à 3000 ft
1500m à 5 km
500 à 1000 ft
800 à 1500m
200 à 500 ft
< 800m
< 200 ft
Symboles :   Orages  Brouillard  Fortes neiges  Fortes précipitations  Vent > 20 kt
SIGMETs :   Divers  Orages  Givrage  Turbulence  Onde Orograph.  Cendres Volcan.







- Altitude de l'aérodrome : 74 ft
- Code IATA : LRH
- Voir les cartes d'approche


LFBH - La Rochelle Ile de Ré

DERNIER METAR :
  • 170030Z AUTO 01012KT 9999 FEW018 SCT030 BKN036 18/14 Q1019 TEMPO BKN014

METARs EXPIRÉS :
  • 170000Z AUTO 02013KT 9999 FEW018 BKN029 OVC130 18/14 Q1018 TEMPO BKN014
  • 162330Z AUTO 01014KT 9999 FEW016 OVC074 18/15 Q1018 TEMPO BKN014
  • 162300Z AUTO 02012KT 9999 BKN014 OVC066 19/16 Q1018 NOSIG
  • 162230Z AUTO 01014KT 9999 BKN014 19/17 Q1018 TEMPO SCT020 BKN030
  • 162200Z AUTO 36013KT 330V050 9999 BKN011 19/17 Q1017 BECMG SCT020 BKN030

TAF TAF LFBH
Valide du 17 à 00h jusqu'au 18 à 00h UTC


162300Z 1700/1724 34014KT 9999 SCT020 BKN040
PROB30
TEMPO 1700/1702 -RA BKN014
BECMG 1703/1705 CAVOK
BECMG 1712/1714 30015G25KT
BECMG 1718/1720 34010KT
ATIS : +33 5 46 00 13 92
Pas de NOTAMs connus pour ce terrain.
2 SIGMETs publiés pour la FIR Bordeaux (LFBB) :
 
Orages noyés dans la masse
LFBB SIGMET 1 VALID 170100/170300 LFPW
LFBB BORDEAUX FIR/UIR EMBD TS OBS WI N4315 E00230 - N4215 E00230 - N4230 E00045 - N4315 E00130 - N4315 E00230 TOP FL360 STNR NC=
Orages noyés dans la masse
LFBB SIGMET 1 VALID 162340/170100 LFPW
LFBB BORDEAUX FIR/UIR EMBD TS OBS WI N4315 E00230 - N4215 E00230 - N4245 E00015 - N4315 E00030 - N4315 E00230 TOP FL360 STNR NC=



MET'MAP, la Météo Aéronautique d'un coup d'oeil ! - Copyright ORBIFLY Décembre 2007 - Disclaimer

ORBIFLY MET'MAP TEAM :

Programmation & Développement : Alexandra Zaïnal
Conception & Développement : Baudouin d'Aumeries
Co-Programmation & Développement : Marc-Olivier Méhu
Soutien technique & logistique : Manuel Goepfert

Contact : metmap@orbifly.com




SOURCES & CREDITS :

   NOAA